createdAt,value
2019-01-31T12:27:05.469Z,92891.10
2019-01-31T12:29:34.178Z,92924.44
2019-01-31T12:32:02.820Z,92923.63
2019-01-31T12:34:31.375Z,92930.11
2019-01-31T12:37:00.033Z,92927.60
2019-01-31T12:39:30.078Z,92931.12
2019-01-31T12:41:58.561Z,92932.52
2019-01-31T12:44:27.270Z,92930.38
2019-01-31T12:46:56.249Z,92926.41
2019-01-31T12:49:24.720Z,92928.96
2019-01-31T12:51:53.201Z,92921.64
2019-01-31T12:54:22.449Z,92923.62
2019-01-31T12:56:51.331Z,92917.89
2019-01-31T12:59:20.541Z,92929.30
2019-01-31T13:01:49.366Z,92926.56
2019-01-31T13:04:20.534Z,92846.78
2019-01-31T13:06:48.544Z,92925.83
2019-01-31T13:09:18.868Z,92928.30
2019-01-31T13:11:47.693Z,92924.58
2019-01-31T13:14:16.398Z,92922.78
2019-01-31T13:16:45.299Z,92925.69
2019-01-31T13:19:14.139Z,92929.34
2019-01-31T13:21:43.086Z,92922.17
2019-01-31T13:24:11.851Z,92924.44
2019-01-31T13:26:40.775Z,92923.50
2019-01-31T13:29:09.743Z,92907.80
2019-01-31T13:31:38.796Z,92926.89
2019-01-31T13:34:08.779Z,92937.23
2019-01-31T13:36:37.435Z,92934.30
2019-01-31T13:39:10.415Z,92934.08
2019-01-31T13:41:41.786Z,92933.52
2019-01-31T13:44:10.106Z,92935.13
2019-01-31T13:46:39.123Z,92941.38
2019-01-31T13:49:08.048Z,92935.53
2019-01-31T13:51:36.779Z,92945.75
2019-01-31T13:54:06.479Z,92948.45
2019-01-31T13:56:45.274Z,92943.91
2019-01-31T13:59:05.645Z,92956.77
2019-01-31T14:01:34.439Z,92952.74
2019-01-31T14:04:03.155Z,92949.89
2019-01-31T14:06:32.061Z,92948.57
2019-01-31T14:09:00.749Z,92950.66
2019-01-31T14:11:29.622Z,92952.64
2019-01-31T14:14:08.744Z,92956.89
2019-01-31T14:16:29.243Z,92954.31
2019-01-31T14:18:58.207Z,92956.22
2019-01-31T14:21:26.882Z,92951.03
2019-01-31T14:23:56.418Z,92959.45
2019-01-31T14:26:25.173Z,92961.06
2019-01-31T14:28:53.951Z,92962.34
2019-01-31T14:31:22.808Z,92945.14
2019-01-31T14:33:51.704Z,92966.81
2019-01-31T14:36:20.585Z,92967.17
2019-01-31T14:38:49.517Z,92972.48
2019-01-31T14:41:18.258Z,92971.57
2019-01-31T14:43:46.949Z,92971.01
2019-01-31T14:46:15.954Z,92977.39
2019-01-31T14:48:45.041Z,92978.47
2019-01-31T14:51:13.702Z,92980.50
2019-01-31T14:53:42.764Z,92984.56
2019-01-31T14:56:11.588Z,92987.04
2019-01-31T14:58:40.313Z,92988.95
2019-01-31T15:01:09.064Z,92996.59
2019-01-31T15:03:38.005Z,92991.66
2019-01-31T15:06:06.771Z,92996.16
2019-01-31T15:08:35.657Z,92998.58
2019-01-31T15:11:05.094Z,93002.16
2019-01-31T15:13:33.885Z,93007.81
2019-01-31T15:16:04.194Z,93009.44
2019-01-31T15:18:33.156Z,93005.66
2019-01-31T15:21:01.969Z,93012.86
2019-01-31T15:23:30.655Z,93016.73
2019-01-31T15:25:59.448Z,93021.63
2019-01-31T15:28:28.157Z,93028.39
2019-01-31T15:30:56.917Z,93036.78
2019-01-31T15:33:27.590Z,93048.45
2019-01-31T15:35:56.471Z,93051.78
2019-01-31T15:38:25.459Z,93058.07
2019-01-31T15:40:54.204Z,93068.81
2019-01-31T15:43:23.233Z,93073.64
2019-01-31T15:45:51.955Z,93085.20
2019-01-31T15:48:20.800Z,93084.56
2019-01-31T15:50:49.517Z,93098.55
2019-01-31T15:53:18.192Z,93098.28
2019-01-31T15:55:46.967Z,93099.60
2019-01-31T15:58:15.843Z,93099.67
2019-01-31T16:00:49.808Z,93107.27
2019-01-31T16:03:19.895Z,93115.57
2019-01-31T16:05:49.264Z,93116.78
2019-01-31T16:08:18.007Z,93121.45
2019-01-31T16:10:47.262Z,93128.37
2019-01-31T16:13:16.109Z,93139.28
2019-01-31T16:15:45.241Z,93144.79
2019-01-31T16:18:14.367Z,93150.00
2019-01-31T16:20:43.577Z,93150.33
2019-01-31T16:23:12.459Z,93147.77
2019-01-31T16:25:41.889Z,93156.14
2019-01-31T16:28:10.825Z,93158.48
2019-01-31T16:30:39.517Z,93172.30
2019-01-31T16:33:08.822Z,93169.61
2019-01-31T16:35:37.516Z,93167.34
2019-01-31T16:38:07.371Z,93174.98
2019-01-31T16:40:36.202Z,93178.32
2019-01-31T16:43:06.271Z,93181.03
2019-01-31T16:45:34.980Z,93185.23
2019-01-31T16:48:04.264Z,93185.02
2019-01-31T16:50:33.410Z,93186.87
2019-01-31T16:53:02.058Z,93197.64
2019-01-31T16:55:31.274Z,93198.16
2019-01-31T16:58:00.534Z,93203.17
2019-01-31T17:00:32.000Z,93211.17
2019-01-31T17:03:00.932Z,93143.45
2019-01-31T17:05:31.897Z,93212.05
2019-01-31T17:08:00.817Z,93206.08
2019-01-31T17:10:29.685Z,93212.95
2019-01-31T17:12:58.456Z,93213.44
2019-01-31T17:15:27.414Z,93217.13
2019-01-31T17:17:56.271Z,93220.82
2019-01-31T17:20:36.803Z,93229.28
2019-01-31T17:23:05.874Z,93225.02
2019-01-31T17:25:34.529Z,93219.00
2019-01-31T17:28:03.281Z,93226.64
2019-01-31T17:30:31.960Z,93228.23
2019-01-31T17:33:00.624Z,93219.42
2019-01-31T17:35:29.317Z,93226.92
2019-01-31T17:37:57.995Z,93232.95
2019-01-31T17:40:35.529Z,93239.70
2019-01-31T17:43:04.885Z,93242.41
2019-01-31T17:45:33.548Z,93247.59
2019-01-31T17:48:02.432Z,93257.66
2019-01-31T17:50:31.092Z,93253.89
2019-01-31T17:52:59.805Z,93263.83
2019-01-31T17:55:28.895Z,93265.05
2019-01-31T17:57:57.554Z,93265.55
2019-01-31T18:00:39.372Z,93278.08
2019-01-31T18:03:08.737Z,93273.64
2019-01-31T18:05:37.418Z,93287.66
2019-01-31T18:08:09.159Z,93289.86
2019-01-31T18:10:36.960Z,93297.11
2019-01-31T18:13:05.804Z,93296.48
2019-01-31T18:15:41.691Z,93300.18
2019-01-31T18:18:06.128Z,93300.22
2019-01-31T18:20:34.820Z,93300.35
2019-01-31T18:23:03.469Z,93308.05
2019-01-31T18:25:32.178Z,93315.23
2019-01-31T18:28:00.873Z,93314.73
2019-01-31T18:30:32.419Z,93318.71
2019-01-31T18:33:01.156Z,93315.88
2019-01-31T18:35:30.801Z,93320.06
2019-01-31T18:37:59.448Z,93322.41
2019-01-31T18:40:33.582Z,93323.03
2019-01-31T18:43:02.371Z,93336.05
2019-01-31T18:45:33.759Z,93340.91
2019-01-31T18:48:02.597Z,93339.93
2019-01-31T18:50:36.925Z,93340.96
2019-01-31T18:53:06.102Z,93353.01
2019-01-31T18:55:34.804Z,93346.42
2019-01-31T18:58:03.550Z,93350.95
2019-01-31T19:00:37.923Z,93353.38
2019-01-31T19:03:07.834Z,93352.69
2019-01-31T19:05:36.605Z,93360.84
2019-01-31T19:08:08.871Z,93370.09
2019-01-31T19:10:43.441Z,93378.24
2019-01-31T19:13:06.784Z,93377.41
2019-01-31T19:15:35.495Z,93375.58
2019-01-31T19:18:06.248Z,93381.92
2019-01-31T19:20:35.453Z,93382.75
2019-01-31T19:23:06.623Z,93388.88
2019-01-31T19:25:35.287Z,93378.45
2019-01-31T19:28:04.761Z,93377.97
2019-01-31T19:30:38.002Z,93386.21
2019-01-31T19:33:08.169Z,93398.08
2019-01-31T19:35:37.544Z,93402.84
2019-01-31T19:38:07.563Z,93404.86
2019-01-31T19:40:38.599Z,93413.47
2019-01-31T19:43:08.742Z,93409.85
2019-01-31T19:45:40.321Z,93413.47
2019-01-31T19:48:11.174Z,93432.42
2019-01-31T19:50:43.393Z,93430.59
2019-01-31T19:53:13.918Z,93436.09
2019-01-31T19:55:42.896Z,93443.15
2019-01-31T19:58:11.772Z,93450.16
2019-01-31T20:00:40.811Z,93445.69
2019-01-31T20:03:09.981Z,93445.89
2019-01-31T20:05:38.717Z,93447.23
2019-01-31T20:08:09.314Z,93446.22
2019-01-31T20:10:38.033Z,93442.16
2019-01-31T20:13:06.773Z,93435.33
2019-01-31T20:15:35.642Z,93452.00
2019-01-31T20:18:04.663Z,93450.26
2019-01-31T20:20:33.562Z,93453.95
2019-01-31T20:23:02.240Z,93458.50
2019-01-31T20:25:31.758Z,93474.36
2019-01-31T20:28:00.422Z,93467.17
2019-01-31T20:30:31.097Z,93472.84
2019-01-31T20:33:01.132Z,93482.34
2019-01-31T20:35:30.309Z,93490.80
2019-01-31T20:37:59.212Z,93495.10
2019-01-31T20:40:39.079Z,93492.80
2019-01-31T20:43:07.994Z,93498.72
2019-01-31T20:45:37.064Z,93493.06
2019-01-31T20:48:06.250Z,93499.19
2019-01-31T20:50:36.921Z,93502.46
2019-01-31T20:53:06.151Z,93513.67
2019-01-31T20:55:34.823Z,93514.23
2019-01-31T20:58:03.831Z,93517.14
2019-01-31T21:00:38.447Z,93517.14
2019-01-31T21:03:08.313Z,93515.56
2019-01-31T21:05:37.485Z,93510.14
2019-01-31T21:08:07.039Z,93525.61
2019-01-31T21:10:36.093Z,93514.92
2019-01-31T21:13:06.490Z,93523.24
2019-01-31T21:15:35.174Z,93533.67
2019-01-31T21:18:04.451Z,93543.92
2019-01-31T21:20:33.110Z,93547.95
2019-01-31T21:23:01.781Z,93548.50
2019-01-31T21:25:34.525Z,93555.54
2019-01-31T21:28:03.120Z,93570.63
2019-01-31T21:30:34.482Z,93557.84
2019-01-31T21:33:03.251Z,93572.92
2019-01-31T21:35:32.118Z,93584.70
2019-01-31T21:38:00.783Z,93587.92
2019-01-31T21:40:34.669Z,93596.21
2019-01-31T21:43:03.835Z,93592.33
2019-01-31T21:45:32.502Z,93599.94
2019-01-31T21:48:01.307Z,93599.54
2019-01-31T21:50:33.809Z,93595.98
2019-01-31T21:53:02.526Z,93607.03
2019-01-31T21:55:31.331Z,93608.10
2019-01-31T21:58:00.030Z,93615.65
2019-01-31T22:00:34.356Z,93618.31
2019-01-31T22:03:04.907Z,93617.84
2019-01-31T22:05:33.787Z,93624.41
2019-01-31T22:08:02.593Z,93624.80
2019-01-31T22:10:31.582Z,93629.47
2019-01-31T22:13:02.791Z,93626.75
2019-01-31T22:15:33.918Z,93627.44
2019-01-31T22:18:02.641Z,93633.84
2019-01-31T22:20:31.319Z,93637.20
2019-01-31T22:23:00.008Z,93643.66
2019-01-31T22:25:28.761Z,93645.16
2019-01-31T22:27:57.439Z,93622.97
2019-01-31T22:30:34.802Z,93658.52
2019-01-31T22:33:03.512Z,93665.70
2019-01-31T22:35:32.514Z,93662.86
2019-01-31T22:38:01.391Z,93652.80
2019-01-31T22:40:30.142Z,93660.66
2019-01-31T22:42:58.888Z,93661.38
2019-01-31T22:45:29.850Z,93666.78
2019-01-31T22:47:58.519Z,93670.36
2019-01-31T22:50:27.272Z,93674.53
2019-01-31T22:52:55.959Z,93669.33
2019-01-31T22:55:26.624Z,93679.40
2019-01-31T22:57:55.806Z,93687.19
2019-01-31T23:00:35.048Z,93680.47
2019-01-31T23:03:04.523Z,93681.51
2019-01-31T23:05:33.207Z,93680.78
2019-01-31T23:08:01.912Z,93679.54
2019-01-31T23:10:30.920Z,93685.11
2019-01-31T23:12:59.892Z,93683.35
2019-01-31T23:15:28.578Z,93686.96
2019-01-31T23:17:57.271Z,93693.78
2019-01-31T23:20:26.059Z,93687.06
2019-01-31T23:22:54.955Z,93690.33
2019-01-31T23:25:23.684Z,93697.50
2019-01-31T23:27:52.453Z,93705.70
2019-01-31T23:30:21.058Z,93705.55
2019-01-31T23:32:49.728Z,93697.08
2019-01-31T23:35:18.400Z,93700.80
2019-01-31T23:37:47.119Z,93702.02
2019-01-31T23:40:16.596Z,93704.09
2019-01-31T23:42:45.433Z,93701.90
2019-01-31T23:45:18.774Z,93704.58
2019-01-31T23:47:48.918Z,93705.43
2019-01-31T23:50:17.994Z,93703.78
2019-01-31T23:52:46.664Z,93705.47
2019-01-31T23:55:17.041Z,93712.66
2019-01-31T23:57:45.727Z,93708.78
